Terminal Aerodrome Forecast
Issued by NWS

Home | Current Version | Previous Version | Text Only | Print | Product List | Glossary On
Versions: 1 2 3 4 5 6 7 8 9 10 11 12 13 14 15 16 17 18 19 20 21 22 23 24 25 26 27 28 29
000
FTUS46 KPDT 220611 AAA
TAFYKM
TAF AMD
KYKM 220611Z 2206/2306 26004KT 3SM BR OVC005
     FM221500 30005KT 2SM -SNRA BR OVC015
      TEMPO 2215/2218 3/4SM -SN BR VV008
     FM222000 12003KT 6SM BR VCSH SCT030 BKN100
     FM230000 VRB03KT P6SM SCT040 BKN100=

USA.gov is the U.S. government's official web portal to all federal, state and local government web resources and services.